Time;durP1;ratioP1;P1;durP2;ratioP2;P2;SDS_P1;SDS_P2;PMS_P1;PMS_P2;Temp;Humidity;BMP_temperature;BMP_pressure;BME280_temperature;BME280_humidity;BME280_pressure;Samples;Min_cycle;Max_cycle;Signal;HPM_P1;HPM_P2
2021/07/06 00:02:17;;;;;;;11.52;6.35;;;16.90;99.90;;;;;;4958455;28;20442;-87
2021/07/06 00:04:42;;;;;;;11.88;6.50;;;16.80;99.90;;;;;;4988133;28;20066;-91
2021/07/06 00:07:09;;;;;;;16.55;5.50;;;16.80;99.90;;;;;;4980590;28;20043;-86
2021/07/06 00:09:35;;;;;;;11.27;6.75;;;16.80;99.90;;;;;;4989701;28;20055;-91
2021/07/06 00:12:00;;;;;;;8.82;5.50;;;16.80;99.90;;;;;;4956615;28;20118;-89
2021/07/06 00:14:26;;;;;;;11.25;5.82;;;16.70;99.90;;;;;;4974751;28;20130;-90
2021/07/06 00:16:52;;;;;;;16.42;6.95;;;16.80;99.90;;;;;;4993381;28;20046;-92
2021/07/06 00:19:18;;;;;;;10.95;6.40;;;16.70;99.90;;;;;;4974368;28;20042;-88
2021/07/06 00:21:44;;;;;;;14.32;7.20;;;16.70;99.90;;;;;;4979275;28;20042;-89
2021/07/06 00:24:10;;;;;;;9.15;5.85;;;16.70;99.90;;;;;;4979060;28;20054;-88
2021/07/06 00:26:36;;;;;;;8.40;6.32;;;16.70;99.90;;;;;;4962320;28;20109;-88
2021/07/06 00:29:02;;;;;;;10.05;6.63;;;16.70;99.90;;;;;;4992248;28;20046;-88
2021/07/06 00:31:28;;;;;;;22.10;7.15;;;16.70;99.90;;;;;;4978455;28;20114;-88
2021/07/06 00:33:53;;;;;;;7.60;6.05;;;16.70;99.90;;;;;;4973237;28;20119;-88
2021/07/06 00:36:19;;;;;;;8.18;6.70;;;16.70;99.90;;;;;;4972884;28;20109;-87
2021/07/06 00:38:46;;;;;;;12.27;6.95;;;16.70;99.90;;;;;;4962960;28;20042;-88
2021/07/06 00:41:11;;;;;;;10.05;6.85;;;16.60;99.90;;;;;;4983208;28;20051;-89
2021/07/06 00:43:37;;;;;;;9.02;6.80;;;16.60;99.90;;;;;;4974148;28;20046;-88
2021/07/06 00:46:05;;;;;;;10.70;6.80;;;16.60;99.90;;;;;;4956677;28;20050;-90
2021/07/06 00:48:31;;;;;;;13.57;7.28;;;16.60;99.90;;;;;;4969468;28;20111;-90
2021/07/06 00:50:58;;;;;;;13.50;6.38;;;16.60;99.90;;;;;;4973821;28;20038;-88
2021/07/06 00:53:24;;;;;;;15.95;7.47;;;16.60;99.90;;;;;;4986907;28;20493;-88
2021/07/06 00:55:53;;;;;;;9.35;6.50;;;16.60;99.90;;;;;;4966498;28;20047;-88
2021/07/06 00:58:21;;;;;;;20.13;7.30;;;16.60;99.90;;;;;;4993214;28;20034;-90
2021/07/06 01:00:47;;;;;;;14.07;7.70;;;16.60;99.90;;;;;;4972635;28;20067;-89
2021/07/06 01:03:13;;;;;;;17.08;7.15;;;16.60;99.90;;;;;;4960685;28;20046;-88
2021/07/06 01:05:39;;;;;;;9.68;6.68;;;16.60;99.90;;;;;;4960353;28;20069;-89
2021/07/06 01:08:09;;;;;;;11.35;7.13;;;16.60;99.90;;;;;;4983977;28;20077;-89
2021/07/06 01:10:36;;;;;;;15.07;7.20;;;16.60;99.90;;;;;;4986755;28;20062;-88
2021/07/06 01:13:03;;;;;;;12.55;7.07;;;16.60;99.90;;;;;;4973755;28;20188;-92
2021/07/06 01:15:30;;;;;;;22.45;7.22;;;16.60;99.90;;;;;;4974565;28;20042;-88
2021/07/06 01:18:12;;;;;;;11.60;7.50;;;16.60;99.90;;;;;;4993097;28;20062;-87
2021/07/06 01:20:48;;;;;;;12.90;8.07;;;16.60;99.90;;;;;;4991648;28;20069;-87
2021/07/06 01:23:16;;;;;;;14.80;7.93;;;16.60;99.90;;;;;;4979170;28;20133;-87
2021/07/06 01:25:42;;;;;;;12.35;6.65;;;16.60;99.90;;;;;;4980160;28;20065;-88
2021/07/06 01:28:08;;;;;;;16.88;7.45;;;16.60;99.90;;;;;;4971788;28;20090;-88
2021/07/06 01:30:36;;;;;;;14.32;7.60;;;16.60;99.90;;;;;;4972289;28;20109;-87
2021/07/06 01:33:02;;;;;;;9.73;6.75;;;16.60;99.90;;;;;;4955670;28;20122;-92
2021/07/06 01:35:28;;;;;;;12.27;7.00;;;16.60;99.90;;;;;;4956186;28;20051;-88
2021/07/06 01:38:05;;;;;;;11.32;6.88;;;16.60;99.90;;;;;;4972988;28;20505;-88
2021/07/06 01:40:32;;;;;;;12.23;7.20;;;16.60;99.90;;;;;;4973044;28;20043;-89
2021/07/06 01:43:00;;;;;;;11.30;7.13;;;16.60;99.90;;;;;;4985454;28;20048;-87
2021/07/06 01:45:28;;;;;;;12.88;6.45;;;16.50;99.90;;;;;;4972675;28;20858;-87
2021/07/06 01:47:56;;;;;;;12.23;7.68;;;16.50;99.90;;;;;;4986344;28;20046;-90
2021/07/06 01:50:28;;;;;;;19.52;7.60;;;16.50;99.90;;;;;;4972811;28;20406;-88
2021/07/06 01:52:56;;;;;;;14.75;7.82;;;16.40;99.90;;;;;;4973614;28;20696;-88
2021/07/06 01:55:24;;;;;;;11.05;7.47;;;16.40;99.90;;;;;;4986257;28;20042;-87
2021/07/06 01:57:53;;;;;;;13.50;7.90;;;16.40;99.90;;;;;;4984355;28;20050;-88
2021/07/06 02:00:22;;;;;;;15.32;8.02;;;16.40;99.90;;;;;;4984836;28;20054;-88
2021/07/06 02:02:49;;;;;;;14.10;7.88;;;16.40;99.90;;;;;;4964531;28;20039;-88
2021/07/06 02:05:16;;;;;;;28.23;8.30;;;16.40;99.90;;;;;;4955475;28;20121;-89
2021/07/06 02:07:42;;;;;;;11.02;8.32;;;16.30;99.90;;;;;;4983161;28;20054;-88
2021/07/06 02:10:09;;;;;;;22.65;9.60;;;16.40;99.90;;;;;;4968499;28;20372;-90
2021/07/06 02:12:35;;;;;;;12.73;8.80;;;16.30;99.90;;;;;;4978188;28;20501;-88
2021/07/06 02:15:02;;;;;;;16.40;8.63;;;16.30;99.90;;;;;;4975018;28;20545;-87
2021/07/06 02:17:28;;;;;;;14.27;7.75;;;16.30;99.90;;;;;;4960667;28;20050;-87
2021/07/06 02:19:55;;;;;;;12.32;7.93;;;16.30;99.90;;;;;;4967658;28;20046;-88
2021/07/06 02:22:21;;;;;;;14.85;7.95;;;16.30;99.90;;;;;;4972276;28;20439;-88
2021/07/06 02:24:46;;;;;;;10.55;7.25;;;16.20;99.90;;;;;;4941677;28;20032;-88
2021/07/06 02:27:12;;;;;;;16.85;7.82;;;16.20;99.90;;;;;;4963077;28;20043;-87
2021/07/06 02:29:39;;;;;;;13.27;7.28;;;16.20;99.90;;;;;;4941859;28;20047;-87
2021/07/06 02:32:05;;;;;;;19.55;8.95;;;16.20;99.90;;;;;;4973016;28;20054;-89
2021/07/06 02:34:31;;;;;;;18.58;6.82;;;16.20;99.90;;;;;;4961388;28;20053;-89
2021/07/06 02:36:57;;;;;;;10.38;7.38;;;16.20;99.90;;;;;;4959242;28;20037;-89
2021/07/06 02:39:23;;;;;;;12.18;7.72;;;16.20;99.90;;;;;;4973288;28;20111;-88
2021/07/06 02:41:50;;;;;;;10.80;7.72;;;16.20;99.90;;;;;;4961940;28;20054;-89
2021/07/06 02:44:15;;;;;;;13.50;7.80;;;16.20;99.90;;;;;;4987416;28;20043;-89
2021/07/06 02:46:41;;;;;;;17.55;7.60;;;16.20;99.90;;;;;;4948127;28;20042;-89
2021/07/06 02:49:07;;;;;;;11.88;7.25;;;16.20;99.90;;;;;;4951721;28;20125;-92
2021/07/06 02:51:35;;;;;;;16.30;7.50;;;16.20;99.90;;;;;;4975098;28;20486;-90
2021/07/06 02:54:01;;;;;;;17.35;7.18;;;16.20;99.90;;;;;;4985847;28;20382;-89
2021/07/06 02:56:28;;;;;;;10.32;7.05;;;16.20;99.90;;;;;;4976279;28;20046;-89
2021/07/06 02:58:54;;;;;;;14.63;7.40;;;16.20;99.90;;;;;;4942852;28;20039;-90
2021/07/06 03:01:20;;;;;;;10.43;7.03;;;16.20;99.90;;;;;;4989952;28;20062;-90
2021/07/06 03:03:46;;;;;;;11.70;6.88;;;16.20;99.90;;;;;;4977077;28;20066;-90
2021/07/06 03:06:12;;;;;;;10.05;6.53;;;16.20;99.90;;;;;;4941225;28;20042;-90
2021/07/06 03:08:38;;;;;;;9.00;6.97;;;16.20;99.90;;;;;;4993157;28;20089;-90
2021/07/06 03:11:04;;;;;;;15.95;7.05;;;16.30;99.90;;;;;;4996156;28;20488;-90
2021/07/06 03:13:30;;;;;;;24.92;7.30;;;16.30;99.90;;;;;;4979753;28;20590;-89
2021/07/06 03:15:56;;;;;;;8.20;5.93;;;16.30;99.90;;;;;;4997709;28;20065;-90
2021/07/06 03:18:22;;;;;;;6.57;5.93;;;16.30;99.90;;;;;;4987467;28;20413;-89
2021/07/06 03:20:48;;;;;;;9.40;6.22;;;16.30;99.90;;;;;;4977673;28;20053;-89
2021/07/06 03:23:17;;;;;;;21.42;6.00;;;16.40;99.90;;;;;;4973292;28;20050;-90
2021/07/06 03:25:44;;;;;;;10.60;6.00;;;16.40;99.90;;;;;;4995031;28;20060;-90
2021/07/06 03:28:11;;;;;;;20.10;5.55;;;16.40;99.90;;;;;;4961226;28;20494;-88
2021/07/06 03:30:38;;;;;;;12.20;5.53;;;16.40;99.90;;;;;;4989335;28;20125;-88
2021/07/06 03:33:06;;;;;;;9.93;4.93;;;16.40;99.90;;;;;;5010514;28;20100;-87
2021/07/06 03:35:32;;;;;;;10.15;5.30;;;16.40;99.90;;;;;;5004897;28;20110;-87
2021/07/06 03:37:58;;;;;;;7.38;5.30;;;16.40;99.90;;;;;;4964331;28;20059;-86
2021/07/06 03:40:25;;;;;;;6.78;5.03;;;16.40;99.90;;;;;;5003237;28;20057;-87
2021/07/06 03:42:52;;;;;;;19.75;5.00;;;16.40;99.90;;;;;;4997297;28;20041;-87
2021/07/06 03:45:19;;;;;;;7.45;4.43;;;16.40;99.90;;;;;;4991287;28;20096;-88
2021/07/06 03:47:46;;;;;;;7.95;4.97;;;16.50;99.90;;;;;;4962107;28;20043;-88
2021/07/06 03:50:18;;;;;;;9.00;4.65;;;16.50;99.90;;;;;;4978734;28;20050;-91
2021/07/06 03:52:45;;;;;;;6.53;4.70;;;16.60;99.90;;;;;;4977742;28;20410;-87
2021/07/06 03:55:11;;;;;;;7.28;4.70;;;16.50;99.90;;;;;;4991779;28;20131;-86
2021/07/06 03:57:37;;;;;;;6.72;4.25;;;16.60;99.90;;;;;;5005375;28;20057;-87
2021/07/06 04:00:08;;;;;;;6.78;4.13;;;16.60;99.90;;;;;;4978643;28;20058;-89
2021/07/06 04:02:33;;;;;;;6.43;3.80;;;16.70;99.90;;;;;;4974564;28;20117;-89
2021/07/06 04:04:59;;;;;;;6.72;4.68;;;16.70;99.90;;;;;;4957841;28;20122;-89
2021/07/06 04:07:25;;;;;;;9.32;4.75;;;16.70;99.90;;;;;;4975254;28;20491;-87
2021/07/06 04:09:51;;;;;;;9.95;4.60;;;16.70;99.90;;;;;;4975881;28;20394;-88
2021/07/06 04:12:17;;;;;;;5.03;3.97;;;16.70;99.90;;;;;;4973974;28;20050;-87
2021/07/06 04:14:42;;;;;;;6.03;4.30;;;16.70;99.90;;;;;;4974059;28;20097;-87
2021/07/06 04:17:08;;;;;;;11.90;4.15;;;16.70;99.90;;;;;;4974026;28;20067;-88
2021/07/06 04:19:34;;;;;;;6.28;4.03;;;16.70;99.90;;;;;;4941931;28;20067;-86
2021/07/06 04:22:00;;;;;;;8.18;3.60;;;16.70;99.90;;;;;;4974450;28;20463;-86
2021/07/06 04:24:27;;;;;;;3.70;3.42;;;16.80;99.90;;;;;;4974045;28;20483;-87
2021/07/06 04:26:53;;;;;;;5.60;3.60;;;16.80;99.90;;;;;;4984421;28;20077;-87
2021/07/06 04:29:18;;;;;;;3.50;3.20;;;16.90;99.90;;;;;;4959895;28;20067;-87
2021/07/06 04:31:44;;;;;;;6.68;3.47;;;16.90;99.90;;;;;;4958207;28;20050;-87
2021/07/06 04:34:10;;;;;;;12.15;3.10;;;16.90;99.90;;;;;;4982918;28;20038;-87
2021/07/06 04:36:36;;;;;;;4.82;3.35;;;17.00;99.90;;;;;;4974479;28;20054;-86
2021/07/06 04:39:03;;;;;;;7.93;4.80;;;17.10;99.90;;;;;;4985102;28;20130;-86
2021/07/06 04:41:28;;;;;;;4.90;3.15;;;17.10;99.90;;;;;;4966274;28;20054;-88
2021/07/06 04:43:54;;;;;;;4.25;3.33;;;17.10;99.90;;;;;;4969748;28;20046;-87
2021/07/06 04:46:20;;;;;;;3.30;2.65;;;17.20;99.90;;;;;;4968545;28;20054;-92
2021/07/06 04:48:46;;;;;;;10.77;4.13;;;17.20;99.90;;;;;;4969118;28;20050;-87
2021/07/06 04:51:12;;;;;;;6.38;2.70;;;17.30;99.90;;;;;;4972795;28;20417;-88
2021/07/06 04:53:39;;;;;;;8.00;2.60;;;17.30;99.90;;;;;;4976516;28;20034;-88
2021/07/06 04:56:05;;;;;;;3.85;2.75;;;17.30;99.90;;;;;;4957254;28;20046;-88
2021/07/06 04:58:31;;;;;;;2.67;2.40;;;17.40;99.90;;;;;;4976019;28;20048;-90
2021/07/06 05:01:00;;;;;;;4.25;2.42;;;17.50;99.90;;;;;;4966708;28;20046;-89
2021/07/06 05:03:28;;;;;;;4.03;1.88;;;17.60;99.90;;;;;;4962204;28;20067;-87
2021/07/06 05:05:55;;;;;;;3.80;2.03;;;17.70;99.90;;;;;;4966137;28;20125;-88
2021/07/06 05:08:21;;;;;;;2.88;1.88;;;17.80;99.90;;;;;;4956891;28;20122;-91
2021/07/06 05:10:47;;;;;;;3.00;2.03;;;17.80;99.90;;;;;;4932490;28;20121;-87
2021/07/06 05:13:14;;;;;;;5.05;2.42;;;17.90;99.90;;;;;;4988826;28;20093;-87
2021/07/06 05:15:40;;;;;;;6.88;1.98;;;17.90;99.90;;;;;;4957583;28;20035;-88
2021/07/06 05:18:05;;;;;;;1.95;1.50;;;17.90;99.90;;;;;;4976455;28;20121;-86
2021/07/06 05:20:31;;;;;;;9.95;1.70;;;18.00;99.90;;;;;;4963763;28;20050;-88
2021/07/06 05:22:57;;;;;;;5.85;2.25;;;18.10;99.90;;;;;;4973024;28;20121;-86
2021/07/06 05:25:23;;;;;;;2.72;1.85;;;18.20;99.90;;;;;;4970729;28;20491;-91
2021/07/06 05:27:49;;;;;;;1.77;1.20;;;18.20;99.90;;;;;;4978578;28;20050;-87
2021/07/06 05:30:16;;;;;;;4.93;1.38;;;18.30;99.90;;;;;;4978392;28;20050;-88
2021/07/06 05:32:42;;;;;;;7.90;1.52;;;18.40;99.90;;;;;;4973383;28;20125;-90
2021/07/06 05:35:08;;;;;;;3.70;1.23;;;18.40;99.90;;;;;;4978146;28;20049;-88
2021/07/06 05:37:38;;;;;;;2.75;1.13;;;18.40;99.90;;;;;;4948532;28;20080;-86
2021/07/06 05:40:07;;;;;;;2.33;1.27;;;18.50;99.90;;;;;;4976796;28;20394;-87
2021/07/06 05:42:38;;;;;;;4.45;1.30;;;18.60;99.90;;;;;;4973652;28;20039;-88
2021/07/06 05:45:06;;;;;;;1.55;1.08;;;18.70;99.90;;;;;;4998625;28;20100;-87
2021/07/06 05:47:35;;;;;;;3.00;1.10;;;18.80;99.90;;;;;;4971536;28;20498;-88
2021/07/06 05:50:01;;;;;;;2.63;1.00;;;18.90;99.90;;;;;;4978345;28;20402;-87
2021/07/06 05:52:28;;;;;;;0.90;0.90;;;19.10;99.90;;;;;;4971977;28;20101;-91
2021/07/06 05:54:54;;;;;;;2.95;1.02;;;19.10;99.90;;;;;;4977972;28;20067;-88
2021/07/06 05:57:29;;;;;;;3.42;1.33;;;19.30;99.90;;;;;;4972194;28;20046;-88
2021/07/06 05:59:56;;;;;;;4.68;1.10;;;19.40;99.90;;;;;;4970621;28;20530;-89
2021/07/06 06:02:23;;;;;;;3.90;0.95;;;19.50;99.90;;;;;;4980310;28;20047;-87
2021/07/06 06:04:49;;;;;;;2.13;0.82;;;19.70;99.90;;;;;;4987186;28;20039;-87
2021/07/06 06:07:15;;;;;;;1.60;0.90;;;19.70;99.90;;;;;;4977307;28;20081;-87
2021/07/06 06:09:40;;;;;;;2.13;0.57;;;19.80;99.90;;;;;;4967661;28;20047;-88
2021/07/06 06:12:08;;;;;;;4.22;1.00;;;19.90;99.90;;;;;;4972694;28;20062;-88
2021/07/06 06:14:33;;;;;;;1.60;1.15;;;19.90;99.90;;;;;;4956817;28;20450;-91
2021/07/06 06:16:59;;;;;;;3.13;0.63;;;19.90;99.90;;;;;;4939946;28;20142;-88
2021/07/06 06:19:25;;;;;;;2.10;0.77;;;19.90;99.90;;;;;;4942774;28;20125;-93
2021/07/06 06:21:50;;;;;;;10.55;0.98;;;19.80;99.90;;;;;;4956376;28;20058;-87
2021/07/06 06:24:16;;;;;;;7.93;0.80;;;19.80;99.90;;;;;;4964812;28;20038;-89
2021/07/06 06:26:42;;;;;;;3.95;0.60;;;19.80;99.90;;;;;;4936193;29;20054;-87
2021/07/06 06:29:08;;;;;;;3.15;0.80;;;19.80;99.90;;;;;;4978720;28;20122;-89
2021/07/06 06:31:33;;;;;;;4.13;0.88;;;19.70;99.90;;;;;;4970543;28;20522;-88
2021/07/06 06:33:59;;;;;;;3.08;1.20;;;19.60;99.90;;;;;;4935669;29;20400;-87
2021/07/06 06:36:25;;;;;;;6.57;0.98;;;19.50;99.90;;;;;;4985170;28;20534;-87
2021/07/06 06:38:51;;;;;;;1.33;0.70;;;19.40;99.90;;;;;;4958867;28;20494;-88
2021/07/06 06:41:16;;;;;;;5.40;1.08;;;19.10;99.90;;;;;;4943831;28;20066;-89
2021/07/06 06:43:42;;;;;;;1.13;0.82;;;19.00;99.90;;;;;;4964693;28;20038;-87
2021/07/06 06:46:08;;;;;;;2.85;1.00;;;18.90;99.90;;;;;;4947704;28;20129;-88
2021/07/06 06:48:34;;;;;;;2.35;1.50;;;18.80;99.90;;;;;;4941637;28;20043;-88
2021/07/06 06:51:00;;;;;;;6.03;0.88;;;18.70;99.90;;;;;;4972398;28;20043;-89
2021/07/06 06:53:25;;;;;;;10.07;2.15;;;18.80;99.90;;;;;;4949030;29;20047;-89
2021/07/06 06:55:51;;;;;;;1.80;0.90;;;18.70;99.90;;;;;;4944372;28;20042;-88
2021/07/06 06:58:17;;;;;;;1.02;0.90;;;18.70;99.90;;;;;;4955061;28;20185;-87
2021/07/06 07:00:43;;;;;;;0.80;0.80;;;18.70;99.90;;;;;;4960099;28;20056;-88
2021/07/06 07:03:09;;;;;;;2.15;1.08;;;18.70;99.90;;;;;;4964813;28;20047;-86
2021/07/06 07:05:35;;;;;;;3.40;1.05;;;18.60;99.90;;;;;;4974404;28;20045;-86
2021/07/06 07:08:01;;;;;;;5.65;1.05;;;18.70;99.90;;;;;;4959186;28;20066;-83
2021/07/06 07:10:27;;;;;;;3.10;1.00;;;18.70;99.90;;;;;;4974374;28;20054;-84
2021/07/06 07:12:54;;;;;;;3.25;1.00;;;18.70;99.90;;;;;;4980361;28;20049;-84
2021/07/06 07:15:20;;;;;;;2.17;0.90;;;18.80;99.90;;;;;;4980573;28;20048;-88
2021/07/06 07:17:46;;;;;;;2.78;1.20;;;18.80;99.90;;;;;;4973641;28;20046;-85
2021/07/06 07:20:12;;;;;;;1.45;0.90;;;18.70;99.90;;;;;;4959778;28;20700;-85
2021/07/06 07:22:40;;;;;;;3.95;0.98;;;18.80;99.90;;;;;;4980748;28;20038;-84
2021/07/06 07:25:06;;;;;;;5.78;1.05;;;18.80;99.90;;;;;;4975207;28;20498;-83
2021/07/06 07:27:32;;;;;;;2.53;1.10;;;18.80;99.90;;;;;;4983072;28;20054;-91
2021/07/06 07:29:58;;;;;;;2.28;1.10;;;18.80;99.90;;;;;;4974066;28;20043;-84
2021/07/06 07:32:24;;;;;;;1.35;1.23;;;18.90;99.90;;;;;;4972499;28;20117;-83
2021/07/06 07:34:50;;;;;;;2.22;1.00;;;19.00;99.90;;;;;;4983529;28;20042;-84
2021/07/06 07:37:20;;;;;;;3.08;0.80;;;19.00;99.90;;;;;;4978450;28;20077;-84
2021/07/06 07:39:46;;;;;;;;;;;19.10;99.90;;;;;;4961468;28;20043;-84
2021/07/06 07:42:13;;;;;;;10.05;1.13;;;19.10;99.90;;;;;;4981437;28;19926;-86
2021/07/06 07:44:39;;;;;;;2.28;0.93;;;19.20;99.90;;;;;;4981482;28;20047;-85
2021/07/06 07:47:05;;;;;;;4.18;0.80;;;19.30;99.90;;;;;;4986880;28;20054;-84
2021/07/06 07:49:30;;;;;;;1.98;1.02;;;19.40;99.90;;;;;;4974323;28;20042;-83
2021/07/06 07:51:56;;;;;;;4.55;1.08;;;19.40;99.90;;;;;;4972837;28;20621;-83
2021/07/06 07:54:22;;;;;;;2.65;1.02;;;19.50;99.90;;;;;;4973787;28;20097;-83
2021/07/06 07:56:48;;;;;;;1.40;0.70;;;19.50;99.90;;;;;;4978229;28;20050;-86
2021/07/06 07:59:13;;;;;;;1.70;0.95;;;19.60;99.90;;;;;;4978702;28;20051;-85
2021/07/06 08:01:39;;;;;;;1.10;0.90;;;19.70;99.90;;;;;;4928082;28;20511;-87
2021/07/06 08:04:06;;;;;;;4.03;1.05;;;19.70;99.90;;;;;;4939816;28;20053;-83
2021/07/06 08:06:32;;;;;;;1.83;1.10;;;19.80;99.90;;;;;;4945277;28;20051;-85
2021/07/06 08:08:58;;;;;;;5.53;1.48;;;19.80;99.90;;;;;;4978399;28;20659;-87
2021/07/06 08:11:23;;;;;;;2.95;1.60;;;19.90;99.90;;;;;;4968377;28;20176;-86
2021/07/06 08:13:50;;;;;;;7.03;1.55;;;19.90;99.90;;;;;;4937262;28;20448;-83
2021/07/06 08:16:15;;;;;;;3.65;1.60;;;20.00;99.90;;;;;;4990569;28;20061;-86
2021/07/06 08:18:41;;;;;;;5.95;1.92;;;20.10;99.90;;;;;;4972590;28;20042;-84
2021/07/06 08:21:07;;;;;;;1.73;1.40;;;20.10;99.90;;;;;;4941484;28;20038;-83
2021/07/06 08:23:33;;;;;;;3.70;1.40;;;20.20;99.90;;;;;;4986127;28;20561;-84
2021/07/06 08:25:59;;;;;;;1.60;1.30;;;20.20;99.90;;;;;;4932544;28;20050;-82
2021/07/06 08:28:27;;;;;;;10.15;1.60;;;20.20;99.90;;;;;;4953201;28;20466;-84
2021/07/06 08:30:53;;;;;;;9.35;1.58;;;20.30;99.90;;;;;;4951531;28;20102;-83
2021/07/06 08:33:19;;;;;;;6.40;1.80;;;20.30;99.90;;;;;;4968658;28;20514;-83
2021/07/06 08:35:46;;;;;;;3.72;1.58;;;20.40;99.90;;;;;;4968651;28;20090;-83
2021/07/06 08:38:15;;;;;;;5.55;1.58;;;20.30;99.90;;;;;;4953062;28;20562;-86
2021/07/06 08:40:42;;;;;;;6.90;2.05;;;20.30;99.90;;;;;;4967088;28;20070;-87
2021/07/06 08:43:09;;;;;;;6.53;2.15;;;20.30;99.90;;;;;;4952614;28;20050;-84
2021/07/06 08:45:35;;;;;;;4.88;1.60;;;20.40;99.90;;;;;;4966764;28;20128;-85
2021/07/06 08:48:02;;;;;;;6.75;1.70;;;20.40;99.90;;;;;;4951895;28;20093;-84
2021/07/06 08:50:28;;;;;;;4.75;1.40;;;20.40;99.90;;;;;;4953258;28;20050;-87
2021/07/06 08:52:54;;;;;;;6.28;1.40;;;20.60;99.90;;;;;;4970287;28;20039;-84
2021/07/06 08:55:21;;;;;;;6.55;1.30;;;20.50;99.90;;;;;;4953350;28;20078;-84
2021/07/06 08:57:48;;;;;;;5.75;1.60;;;20.70;99.90;;;;;;4917609;28;20074;-83
2021/07/06 09:00:17;;;;;;;1.75;1.10;;;20.80;99.90;;;;;;4937285;28;20054;-83
2021/07/06 09:03:04;;;;;;;1.02;0.70;;;20.90;99.90;;;;;;4981703;28;20046;-88
2021/07/06 09:05:31;;;;;;;2.83;1.25;;;21.10;99.90;;;;;;4985469;28;20398;-84
2021/07/06 09:07:58;;;;;;;2.15;0.85;;;21.20;99.90;;;;;;4972316;28;20048;-86
2021/07/06 09:10:26;;;;;;;7.40;1.20;;;21.30;99.90;;;;;;4972330;28;20057;-84
2021/07/06 09:12:53;;;;;;;3.50;1.17;;;21.40;99.90;;;;;;5007969;28;20081;-84
2021/07/06 09:15:28;;;;;;;4.55;1.42;;;21.40;99.90;;;;;;4986298;28;20073;-83
2021/07/06 09:18:08;;;;;;;1.63;0.77;;;21.50;99.90;;;;;;4991480;28;20049;-83
2021/07/06 09:20:35;;;;;;;3.38;1.17;;;21.70;99.90;;;;;;4976343;28;20410;-83
2021/07/06 09:23:23;;;;;;;2.72;0.98;;;21.70;99.90;;;;;;5002393;28;20045;-84
2021/07/06 09:26:38;;;;;;;2.30;1.10;;;21.90;99.90;;;;;;5001504;28;20049;-84
2021/07/06 09:29:04;;;;;;;2.15;1.23;;;22.00;99.90;;;;;;4974260;28;20057;-83
2021/07/06 09:31:34;;;;;;;1.40;1.00;;;22.10;99.90;;;;;;4972927;28;20038;-84
2021/07/06 09:34:07;;;;;;;4.20;0.88;;;22.20;99.90;;;;;;5003547;28;20041;-84
2021/07/06 09:36:46;;;;;;;5.03;1.00;;;22.30;99.90;;;;;;5003183;28;20437;-84
2021/07/06 09:39:18;;;;;;;3.13;0.80;;;22.30;99.90;;;;;;5005806;28;20110;-84
2021/07/06 09:41:53;;;;;;;4.15;0.95;;;22.30;99.90;;;;;;5006394;28;20048;-84
2021/07/06 09:44:35;;;;;;;2.13;1.10;;;22.30;99.90;;;;;;5005932;28;20045;-85
2021/07/06 09:47:15;;;;;;;0.75;0.63;;;22.30;99.90;;;;;;4962261;28;20060;-83
2021/07/06 09:49:55;;;;;;;8.48;1.15;;;22.30;99.90;;;;;;4981859;28;20038;-84
2021/07/06 09:52:21;;;;;;;7.00;0.90;;;22.40;99.90;;;;;;5006173;28;20045;-84
2021/07/06 09:54:49;;;;;;;6.07;0.70;;;22.50;99.90;;;;;;4986574;28;20193;-86
2021/07/06 09:57:32;;;;;;;1.02;0.80;;;22.60;99.90;;;;;;5007194;28;20409;-85
2021/07/06 10:00:09;;;;;;;4.38;0.70;;;22.60;99.90;;;;;;4984714;28;20391;-83
2021/07/06 10:02:36;;;;;;;7.15;0.80;;;22.60;99.90;;;;;;4983745;28;20050;-83
2021/07/06 10:05:08;;;;;;;3.95;0.82;;;22.60;99.90;;;;;;4956747;28;20094;-83
2021/07/06 10:07:36;;;;;;;2.75;0.90;;;22.50;99.90;;;;;;4970347;28;20051;-83
2021/07/06 10:10:09;;;;;;;5.38;0.88;;;22.30;99.90;;;;;;4986658;28;20046;-83
2021/07/06 10:12:39;;;;;;;2.28;0.45;;;22.30;99.90;;;;;;4989217;28;20066;-83
2021/07/06 10:15:07;;;;;;;1.73;0.63;;;22.40;99.90;;;;;;4968117;28;20051;-83
2021/07/06 10:17:35;;;;;;;1.55;0.70;;;22.30;99.90;;;;;;4940007;28;20502;-84
2021/07/06 10:20:01;;;;;;;3.30;0.65;;;22.30;99.90;;;;;;4952451;28;20147;-83
2021/07/06 10:22:27;;;;;;;2.78;0.80;;;22.30;99.90;;;;;;4964762;28;20042;-82
2021/07/06 10:24:52;;;;;;;0.85;0.60;;;22.40;99.90;;;;;;4957133;28;20070;-86
2021/07/06 10:27:24;;;;;;;1.65;0.70;;;22.50;99.90;;;;;;4958931;28;20450;-82
2021/07/06 10:30:15;;;;;;;1.30;0.80;;;22.60;99.90;;;;;;4963780;28;20046;-85
2021/07/06 10:32:50;;;;;;;4.55;0.73;;;22.80;99.90;;;;;;4972917;28;20046;-83
2021/07/06 10:35:36;;;;;;;2.03;0.57;;;23.00;99.90;;;;;;4974950;28;20046;-84
2021/07/06 10:38:30;;;;;;;5.22;0.50;;;23.20;99.90;;;;;;4945141;28;20054;-84
2021/07/06 10:40:59;;;;;;;2.40;0.63;;;23.20;99.90;;;;;;4969584;28;20479;-88
2021/07/06 10:43:30;;;;;;;;;;;23.40;99.90;;;;;;4948892;28;20137;-84
2021/07/06 10:45:57;;;;;;;9.00;0.88;;;23.50;99.90;;;;;;4979669;28;20353;-89
2021/07/06 10:48:41;;;;;;;3.97;0.75;;;23.70;99.90;;;;;;4966538;28;20042;-83
2021/07/06 10:51:07;;;;;;;1.88;0.40;;;23.90;99.90;;;;;;4983302;28;20074;-83
2021/07/06 10:53:33;;;;;;;2.97;0.70;;;23.80;99.90;;;;;;4984333;28;20074;-83
2021/07/06 10:56:08;;;;;;;2.92;0.93;;;23.90;99.90;;;;;;4967531;28;20074;-87
2021/07/06 10:58:47;;;;;;;2.85;0.60;;;23.90;99.90;;;;;;4972472;28;20038;-84
2021/07/06 11:01:37;;;;;;;6.45;0.68;;;24.20;99.90;;;;;;4984582;28;20663;-84
2021/07/06 11:04:08;;;;;;;3.00;0.57;;;24.30;99.90;;;;;;4962009;28;20078;-86
2021/07/06 11:06:46;;;;;;;2.78;0.40;;;24.40;99.90;;;;;;4964406;28;20042;-83
2021/07/06 11:09:19;;;;;;;3.97;0.85;;;24.40;99.90;;;;;;4962480;28;20065;-85
2021/07/06 11:11:45;;;;;;;5.95;0.95;;;24.30;99.90;;;;;;4976475;28;20046;-84
2021/07/06 11:14:20;;;;;;;2.65;0.60;;;24.30;99.90;;;;;;4991777;28;20030;-84
2021/07/06 11:16:57;;;;;;;9.43;0.63;;;24.50;99.90;;;;;;4979216;28;20035;-84
2021/07/06 11:19:43;;;;;;;3.97;0.50;;;24.40;99.90;;;;;;4989820;28;20043;-84
2021/07/06 11:22:17;;;;;;;1.27;0.50;;;24.70;99.90;;;;;;4955434;28;20070;-84
2021/07/06 11:24:46;;;;;;;3.45;0.55;;;25.00;99.90;;;;;;4973015;28;20038;-84
2021/07/06 11:27:14;;;;;;;4.47;0.53;;;25.10;99.90;;;;;;4957105;28;20055;-85
2021/07/06 11:29:41;;;;;;;0.50;0.50;;;25.20;99.90;;;;;;4950493;28;20053;-86
2021/07/06 11:32:16;;;;;;;4.53;0.57;;;25.20;99.90;;;;;;4942618;28;20050;-84
2021/07/06 11:34:43;;;;;;;1.08;0.38;;;25.10;99.90;;;;;;4983819;28;20038;-84
2021/07/06 11:37:11;;;;;;;3.75;0.50;;;25.00;99.90;;;;;;4966134;28;20467;-84
2021/07/06 11:39:38;;;;;;;4.85;0.60;;;25.10;99.90;;;;;;4963610;28;20051;-85
2021/07/06 11:42:04;;;;;;;2.70;0.60;;;25.10;99.90;;;;;;4952016;28;20141;-86
2021/07/06 11:44:30;;;;;;;2.25;0.55;;;25.00;99.90;;;;;;4963007;28;20050;-85
2021/07/06 11:47:14;;;;;;;1.83;0.50;;;24.80;99.90;;;;;;4961466;28;20050;-85
2021/07/06 11:49:40;;;;;;;2.83;0.75;;;24.80;99.90;;;;;;4951042;28;20050;-86
2021/07/06 11:52:06;;;;;;;3.90;0.65;;;25.00;99.90;;;;;;4968418;28;20035;-86
2021/07/06 11:54:33;;;;;;;1.08;0.40;;;24.80;99.90;;;;;;4963648;28;20483;-85
2021/07/06 11:57:04;;;;;;;4.38;0.70;;;24.90;99.90;;;;;;4967709;28;20422;-85
2021/07/06 11:59:30;;;;;;;1.88;0.50;;;24.80;99.90;;;;;;4982479;28;20034;-85
2021/07/06 12:02:12;;;;;;;2.15;0.47;;;24.90;99.90;;;;;;4980005;28;20051;-86
2021/07/06 12:04:38;;;;;;;2.70;0.47;;;24.90;99.90;;;;;;4982238;28;20545;-85
2021/07/06 12:07:09;;;;;;;3.92;0.50;;;24.50;99.90;;;;;;4966352;28;20046;-89
2021/07/06 12:09:37;;;;;;;3.17;0.43;;;24.40;99.90;;;;;;4985215;28;20068;-87
2021/07/06 12:12:21;;;;;;;1.95;0.60;;;24.30;99.90;;;;;;4974657;28;20046;-91
2021/07/06 12:14:50;;;;;;;3.50;0.52;;;24.30;99.90;;;;;;4942944;28;20041;-85
2021/07/06 12:17:27;;;;;;;4.97;1.02;;;24.40;99.90;;;;;;4985763;28;20132;-85
2021/07/06 12:19:53;;;;;;;0.68;0.50;;;24.50;99.90;;;;;;4943746;28;20051;-86
2021/07/06 12:22:21;;;;;;;0.45;0.35;;;24.40;99.90;;;;;;4967985;28;20054;-85
2021/07/06 12:24:47;;;;;;;2.33;0.82;;;24.60;99.90;;;;;;4971101;28;20035;-86
2021/07/06 12:27:17;;;;;;;1.30;0.60;;;24.60;99.90;;;;;;4983327;28;20077;-85
2021/07/06 12:29:44;;;;;;;1.85;0.57;;;24.60;99.90;;;;;;4987849;28;20074;-85
2021/07/06 12:32:13;;;;;;;4.70;0.95;;;24.60;99.90;;;;;;4955273;28;20051;-85
2021/07/06 12:34:53;;;;;;;1.40;0.47;;;24.90;99.90;;;;;;4975472;28;20030;-85
2021/07/06 12:37:20;;;;;;;2.85;0.60;;;25.20;99.90;;;;;;4954846;28;20050;-86
2021/07/06 12:39:46;;;;;;;3.80;0.80;;;25.40;99.90;;;;;;4971916;28;20038;-86
2021/07/06 12:42:18;;;;;;;2.80;0.50;;;25.70;99.90;;;;;;4965598;28;20054;-87
2021/07/06 12:44:52;;;;;;;1.58;0.80;;;25.80;99.90;;;;;;4986289;28;20508;-87
2021/07/06 12:47:39;;;;;;;0.73;0.50;;;25.80;99.90;;;;;;4947520;28;20038;-86
2021/07/06 12:50:08;;;;;;;3.08;0.60;;;25.80;99.90;;;;;;4991559;28;20046;-89
2021/07/06 12:52:36;;;;;;;2.33;0.40;;;25.30;99.90;;;;;;4981433;28;20051;-86